Time;durP1;ratioP1;P1;durP2;ratioP2;P2;SDS_P1;SDS_P2;PMS_P1;PMS_P2;Temp;Humidity;BMP_temperature;BMP_pressure;BME280_temperature;BME280_humidity;BME280_pressure;Samples;Min_cycle;Max_cycle;Signal;HPM_P1;HPM_P2
2022/04/10 00:01:23;;;;;;;4.90;3.28;;;7.80;99.90;;;;;;5094615;28;20166;-77
2022/04/10 00:03:49;;;;;;;2.83;2.63;;;7.60;99.90;;;;;;5094862;28;20173;-79
2022/04/10 00:06:15;;;;;;;6.05;2.95;;;7.70;99.90;;;;;;5093353;28;20190;-78
2022/04/10 00:08:40;;;;;;;3.72;3.08;;;7.70;99.90;;;;;;5093473;28;20187;-77
2022/04/10 00:11:06;;;;;;;2.83;2.38;;;7.70;99.90;;;;;;5093075;28;20634;-77
2022/04/10 00:13:32;;;;;;;2.88;2.53;;;7.70;99.90;;;;;;5094320;28;20165;-78
2022/04/10 00:15:57;;;;;;;7.47;2.78;;;7.80;99.90;;;;;;5094511;28;20162;-78
2022/04/10 00:18:23;;;;;;;3.15;2.85;;;7.90;99.90;;;;;;5094349;28;20186;-81
2022/04/10 00:20:49;;;;;;;2.97;2.65;;;7.90;99.90;;;;;;5092590;28;20813;-78
2022/04/10 00:23:14;;;;;;;3.42;3.13;;;7.80;99.90;;;;;;5094688;28;20216;-80
2022/04/10 00:25:40;;;;;;;3.65;2.88;;;7.70;99.90;;;;;;5094333;28;20188;-79
2022/04/10 00:28:06;;;;;;;5.45;3.22;;;7.60;99.90;;;;;;5094118;28;20178;-78
2022/04/10 00:30:32;;;;;;;8.27;3.83;;;7.80;99.90;;;;;;5094308;28;20272;-77
2022/04/10 00:32:58;;;;;;;3.22;2.67;;;7.80;99.90;;;;;;5094085;28;20265;-77
2022/04/10 00:35:24;;;;;;;5.20;3.05;;;7.70;99.90;;;;;;5093836;28;20172;-78
2022/04/10 00:37:49;;;;;;;4.80;2.83;;;7.60;99.90;;;;;;5094129;28;20525;-77
2022/04/10 00:40:15;;;;;;;4.80;3.17;;;7.70;99.90;;;;;;5093706;28;20250;-78
2022/04/10 00:42:47;;;;;;;6.70;3.58;;;7.90;99.90;;;;;;5092139;28;20619;-81
2022/04/10 00:45:13;;;;;;;6.05;3.42;;;8.00;99.90;;;;;;5093975;28;20166;-78
2022/04/10 00:47:39;;;;;;;7.03;3.30;;;7.80;99.90;;;;;;5094117;28;20662;-79
2022/04/10 00:50:07;;;;;;;4.97;3.40;;;7.70;99.90;;;;;;5094172;28;20189;-79
2022/04/10 00:52:34;;;;;;;3.35;2.95;;;7.70;99.90;;;;;;5094046;28;20170;-81
2022/04/10 00:55:00;;;;;;;6.72;2.90;;;7.50;99.90;;;;;;5093647;28;20177;-78
2022/04/10 00:57:25;;;;;;;4.53;3.40;;;7.40;99.90;;;;;;5092412;28;20166;-81
2022/04/10 00:59:51;;;;;;;5.72;3.38;;;7.40;99.90;;;;;;5093638;28;20206;-78
2022/04/10 01:02:17;;;;;;;4.97;3.67;;;7.30;99.90;;;;;;5093422;28;20170;-77
2022/04/10 01:04:43;;;;;;;5.05;3.33;;;7.30;99.90;;;;;;5093262;28;20201;-79
2022/04/10 01:07:11;;;;;;;5.65;3.83;;;7.30;99.90;;;;;;5092420;28;20216;-83
2022/04/10 01:09:38;;;;;;;4.03;3.58;;;7.40;99.90;;;;;;5093711;28;20178;-80
2022/04/10 01:12:05;;;;;;;8.45;3.80;;;7.60;99.90;;;;;;5093435;28;20242;-78
2022/04/10 01:14:30;;;;;;;6.47;3.47;;;7.60;99.90;;;;;;5093386;28;20162;-81
2022/04/10 01:16:57;;;;;;;3.28;2.80;;;7.40;99.90;;;;;;5093733;28;20185;-80
2022/04/10 01:19:23;;;;;;;5.88;3.95;;;7.40;99.90;;;;;;5093300;28;20577;-77
2022/04/10 01:21:51;;;;;;;11.90;3.92;;;7.50;99.90;;;;;;5092921;28;20241;-77
2022/04/10 01:24:16;;;;;;;3.95;3.65;;;7.70;99.90;;;;;;5093274;28;20189;-79
2022/04/10 01:26:43;;;;;;;5.75;3.92;;;7.60;99.90;;;;;;5092810;28;20204;-80
2022/04/10 01:29:14;;;;;;;6.38;3.85;;;7.50;99.90;;;;;;5093124;28;20204;-80
2022/04/10 01:31:42;;;;;;;9.70;4.00;;;7.60;99.90;;;;;;5093201;28;20499;-79
2022/04/10 01:34:10;;;;;;;11.40;4.00;;;7.30;99.90;;;;;;5092697;28;20192;-77
2022/04/10 01:36:37;;;;;;;6.35;3.83;;;7.00;99.90;;;;;;5090995;28;20174;-77
2022/04/10 01:39:04;;;;;;;7.82;4.05;;;7.30;99.90;;;;;;5092846;28;20208;-77
2022/04/10 01:41:30;;;;;;;10.55;3.63;;;7.40;99.90;;;;;;5091723;28;20165;-77
2022/04/10 01:43:57;;;;;;;7.40;3.65;;;7.40;99.90;;;;;;5093108;28;20174;-77
2022/04/10 01:46:25;;;;;;;4.68;4.03;;;7.50;99.90;;;;;;5092418;28;20193;-77
2022/04/10 01:48:51;;;;;;;5.57;3.90;;;7.60;99.90;;;;;;5092444;28;20269;-76
2022/04/10 01:51:17;;;;;;;4.63;3.80;;;7.80;99.90;;;;;;5092359;28;20201;-77
2022/04/10 01:53:42;;;;;;;4.43;3.60;;;7.80;99.90;;;;;;5091716;28;20176;-77
2022/04/10 01:56:09;;;;;;;7.50;3.90;;;7.70;99.90;;;;;;5091340;28;20249;-77
2022/04/10 01:58:38;;;;;;;4.45;3.60;;;7.70;99.90;;;;;;5092230;28;20719;-78
2022/04/10 02:01:05;;;;;;;7.22;4.32;;;7.60;99.90;;;;;;5092723;28;20173;-76
2022/04/10 02:03:31;;;;;;;12.90;4.38;;;7.40;99.90;;;;;;5091134;28;20165;-78
2022/04/10 02:05:57;;;;;;;4.78;3.65;;;7.30;99.90;;;;;;5092483;28;20634;-77
2022/04/10 02:08:24;;;;;;;7.18;3.35;;;7.20;99.90;;;;;;5092597;28;20547;-79
2022/04/10 02:10:49;;;;;;;5.57;3.95;;;7.20;99.90;;;;;;5091250;28;20523;-77
2022/04/10 02:13:15;;;;;;;7.07;3.63;;;7.10;99.90;;;;;;5092566;28;20162;-77
2022/04/10 02:15:41;;;;;;;4.43;3.35;;;7.10;99.90;;;;;;5092656;28;20173;-77
2022/04/10 02:18:06;;;;;;;9.43;5.18;;;7.00;99.90;;;;;;5092396;28;20202;-78
2022/04/10 02:20:32;;;;;;;6.07;4.32;;;6.90;99.90;;;;;;5092421;28;20296;-77
2022/04/10 02:22:59;;;;;;;5.05;4.35;;;6.80;99.90;;;;;;5092562;28;20162;-80
2022/04/10 02:25:25;;;;;;;12.80;4.43;;;6.80;99.90;;;;;;5091933;28;20173;-77
2022/04/10 02:27:51;;;;;;;4.18;3.78;;;6.90;99.90;;;;;;5094448;28;20162;-77
2022/04/10 02:30:18;;;;;;;8.38;4.60;;;6.80;99.90;;;;;;5098237;28;20201;-78
2022/04/10 02:32:44;;;;;;;8.07;4.10;;;6.60;99.90;;;;;;5092422;28;20730;-77
2022/04/10 02:35:10;;;;;;;6.65;4.63;;;6.70;99.90;;;;;;5092141;28;20177;-78
2022/04/10 02:37:36;;;;;;;13.57;5.32;;;6.50;99.90;;;;;;5092360;28;20193;-77
2022/04/10 02:40:03;;;;;;;5.45;4.35;;;6.50;99.90;;;;;;5092067;28;20213;-77
2022/04/10 02:42:29;;;;;;;18.05;5.00;;;6.50;99.90;;;;;;5091154;28;20161;-78
2022/04/10 02:44:55;;;;;;;4.72;4.28;;;6.40;99.90;;;;;;5092338;28;20174;-79
2022/04/10 02:47:20;;;;;;;6.38;4.57;;;6.30;99.90;;;;;;5092224;28;20154;-80
2022/04/10 02:49:47;;;;;;;6.57;4.32;;;6.40;99.90;;;;;;5092339;28;20526;-79
2022/04/10 02:52:12;;;;;;;7.57;3.95;;;6.30;99.90;;;;;;5092297;28;20174;-79
2022/04/10 02:54:38;;;;;;;8.38;5.00;;;6.30;99.90;;;;;;5092412;28;20245;-80
2022/04/10 02:57:04;;;;;;;6.53;4.38;;;6.30;99.90;;;;;;5092098;28;20630;-79
2022/04/10 02:59:29;;;;;;;6.10;4.68;;;6.20;99.90;;;;;;5092202;28;20217;-79
2022/04/10 03:01:55;;;;;;;11.05;4.38;;;6.20;99.90;;;;;;5092053;28;20522;-78
2022/04/10 03:04:20;;;;;;;8.73;4.47;;;6.40;99.90;;;;;;5093113;28;20176;-78
2022/04/10 03:06:46;;;;;;;4.28;3.88;;;6.40;99.90;;;;;;5095730;28;20626;-79
2022/04/10 03:09:12;;;;;;;9.38;4.18;;;6.20;99.90;;;;;;5095620;28;20189;-79
2022/04/10 03:11:37;;;;;;;4.38;3.90;;;6.40;99.90;;;;;;5095758;28;20170;-79
2022/04/10 03:14:03;;;;;;;4.85;3.90;;;6.20;99.90;;;;;;5095990;28;20172;-79
2022/04/10 03:16:28;;;;;;;5.90;5.03;;;6.20;99.90;;;;;;5095909;28;20503;-80
2022/04/10 03:18:54;;;;;;;10.68;4.22;;;6.30;99.90;;;;;;5095422;28;20235;-77
2022/04/10 03:21:20;;;;;;;10.52;4.57;;;6.20;99.90;;;;;;5095185;28;20173;-80
2022/04/10 03:23:46;;;;;;;6.00;4.45;;;6.10;99.90;;;;;;5095913;28;20166;-79
2022/04/10 03:26:12;;;;;;;6.07;4.10;;;5.90;99.90;;;;;;5095340;28;20162;-78
2022/04/10 03:28:37;;;;;;;9.25;4.65;;;5.80;99.90;;;;;;5095311;28;20254;-81
2022/04/10 03:31:03;;;;;;;5.18;4.72;;;5.70;99.90;;;;;;5095371;28;20638;-77
2022/04/10 03:33:29;;;;;;;8.77;5.32;;;5.60;99.90;;;;;;5095001;28;20189;-78
2022/04/10 03:35:55;;;;;;;7.30;4.45;;;5.60;99.90;;;;;;5094873;28;20520;-78
2022/04/10 03:38:21;;;;;;;5.72;4.65;;;5.80;99.90;;;;;;5095147;28;20189;-77
2022/04/10 03:40:47;;;;;;;7.50;4.60;;;6.00;99.90;;;;;;5095049;28;20198;-82
2022/04/10 03:43:13;;;;;;;6.10;4.10;;;5.90;99.90;;;;;;5095325;28;20698;-79
2022/04/10 03:45:39;;;;;;;5.18;4.35;;;5.80;99.90;;;;;;5095594;28;20252;-82
2022/04/10 03:48:06;;;;;;;9.15;4.63;;;5.60;99.90;;;;;;5095086;28;20574;-83
2022/04/10 03:50:33;;;;;;;7.60;5.38;;;5.60;99.90;;;;;;5094861;28;20680;-78
2022/04/10 03:53:00;;;;;;;9.35;4.50;;;5.70;99.90;;;;;;5094974;28;20174;-78
2022/04/10 03:55:25;;;;;;;5.00;4.43;;;6.10;99.90;;;;;;5095016;28;20166;-81
2022/04/10 03:57:51;;;;;;;5.85;4.72;;;6.00;99.90;;;;;;5095013;28;20219;-78
2022/04/10 04:00:17;;;;;;;6.10;5.50;;;5.90;99.90;;;;;;5093460;28;20217;-79
2022/04/10 04:02:43;;;;;;;9.35;4.47;;;5.80;99.90;;;;;;5095145;28;20162;-79
2022/04/10 04:05:09;;;;;;;7.18;4.85;;;5.70;99.90;;;;;;5094554;28;20248;-80
2022/04/10 04:07:37;;;;;;;4.88;4.10;;;5.80;99.90;;;;;;5094788;28;20654;-79
2022/04/10 04:10:06;;;;;;;5.07;4.55;;;5.90;99.90;;;;;;5094467;28;20244;-78
2022/04/10 04:12:34;;;;;;;12.25;4.93;;;5.80;99.90;;;;;;5094378;28;20169;-80
2022/04/10 04:14:59;;;;;;;14.10;4.80;;;5.60;99.90;;;;;;5094244;28;20179;-82
2022/04/10 04:17:25;;;;;;;10.18;5.32;;;5.60;99.90;;;;;;5093750;28;20170;-79
2022/04/10 04:19:51;;;;;;;11.02;4.63;;;5.50;99.90;;;;;;5092967;28;20209;-78
2022/04/10 04:22:17;;;;;;;7.22;4.90;;;5.40;99.90;;;;;;5094360;28;20253;-77
2022/04/10 04:24:43;;;;;;;7.78;4.97;;;5.40;99.90;;;;;;5094349;28;20172;-78
2022/04/10 04:27:09;;;;;;;8.77;4.80;;;5.70;99.90;;;;;;5094286;28;20162;-82
2022/04/10 04:29:35;;;;;;;8.38;4.53;;;5.60;99.90;;;;;;5094130;28;20675;-79
2022/04/10 04:32:01;;;;;;;9.15;5.15;;;5.60;99.90;;;;;;5094000;28;20166;-79
2022/04/10 04:34:26;;;;;;;12.27;5.03;;;5.80;99.90;;;;;;5093987;28;20189;-78
2022/04/10 04:36:52;;;;;;;9.68;4.97;;;5.70;99.90;;;;;;5094230;28;20161;-77
2022/04/10 04:39:18;;;;;;;6.57;5.35;;;5.80;99.90;;;;;;5093958;28;20574;-79
2022/04/10 04:41:43;;;;;;;6.88;5.53;;;5.60;99.90;;;;;;5094079;28;20188;-79
2022/04/10 04:44:09;;;;;;;5.70;5.20;;;5.80;99.90;;;;;;5094145;28;20656;-78
2022/04/10 04:46:35;;;;;;;5.78;5.18;;;5.60;99.90;;;;;;5093999;28;20615;-80
2022/04/10 04:49:01;;;;;;;7.35;5.20;;;5.60;99.90;;;;;;5093832;28;20177;-81
2022/04/10 04:51:28;;;;;;;9.63;4.82;;;5.40;99.90;;;;;;5094093;28;20265;-80
2022/04/10 04:53:53;;;;;;;8.77;5.38;;;5.60;99.90;;;;;;5093866;28;20161;-79
2022/04/10 04:56:19;;;;;;;7.80;5.38;;;5.60;99.90;;;;;;5094252;28;20181;-80
2022/04/10 04:58:47;;;;;;;11.05;5.22;;;5.40;99.90;;;;;;5093447;28;20195;-80
2022/04/10 05:01:13;;;;;;;9.40;5.40;;;5.40;99.90;;;;;;5093849;28;20518;-78
2022/04/10 05:03:38;;;;;;;9.57;5.65;;;5.50;99.90;;;;;;5093931;28;20245;-81
2022/04/10 05:06:04;;;;;;;10.13;6.35;;;5.50;99.90;;;;;;5093737;28;20571;-82
2022/04/10 05:08:29;;;;;;;13.15;5.43;;;5.40;99.90;;;;;;5093529;28;20181;-81
2022/04/10 05:10:55;;;;;;;14.30;5.75;;;5.40;99.90;;;;;;5092429;28;20177;-79
2022/04/10 05:13:20;;;;;;;9.88;5.57;;;5.50;99.90;;;;;;5093764;28;20172;-78
2022/04/10 05:15:46;;;;;;;9.23;5.25;;;5.70;99.90;;;;;;5093745;28;20158;-81
2022/04/10 05:18:13;;;;;;;7.45;5.38;;;5.90;99.90;;;;;;5093459;28;20189;-80
2022/04/10 05:20:39;;;;;;;7.00;4.93;;;6.10;99.90;;;;;;5092699;28;20201;-78
2022/04/10 05:23:05;;;;;;;9.68;5.53;;;6.20;99.90;;;;;;5093443;28;20166;-80
2022/04/10 05:25:31;;;;;;;15.35;5.60;;;6.20;99.90;;;;;;5093307;28;20173;-79
2022/04/10 05:27:56;;;;;;;13.52;5.88;;;6.30;99.90;;;;;;5093040;28;20245;-78
2022/04/10 05:30:22;;;;;;;8.80;5.80;;;6.10;99.90;;;;;;5092722;28;20165;-79
2022/04/10 05:32:48;;;;;;;7.38;5.45;;;6.30;99.90;;;;;;5092899;28;20173;-79
2022/04/10 05:35:14;;;;;;;6.72;5.05;;;6.30;99.90;;;;;;5092773;28;20162;-78
2022/04/10 05:37:40;;;;;;;8.73;6.25;;;6.40;99.90;;;;;;5093219;28;20177;-82
2022/04/10 05:40:06;;;;;;;9.38;6.00;;;6.60;99.90;;;;;;5093015;28;20573;-78
2022/04/10 05:42:32;;;;;;;8.18;5.95;;;6.70;99.90;;;;;;5093068;28;20173;-79
2022/04/10 05:45:03;;;;;;;12.75;5.95;;;6.90;99.90;;;;;;5092843;28;20173;-78
2022/04/10 05:47:29;;;;;;;13.25;5.53;;;7.20;99.90;;;;;;5092675;28;20166;-77
2022/04/10 05:49:55;;;;;;;13.82;5.47;;;7.20;99.90;;;;;;5092625;28;20239;-78
2022/04/10 05:52:20;;;;;;;11.52;7.25;;;7.10;99.90;;;;;;5092792;28;20154;-82
2022/04/10 05:54:46;;;;;;;7.43;6.35;;;7.30;99.90;;;;;;5093089;28;20253;-81
2022/04/10 05:57:11;;;;;;;11.73;5.72;;;7.30;99.90;;;;;;5093173;28;20162;-81
2022/04/10 05:59:37;;;;;;;13.85;6.07;;;7.30;99.90;;;;;;5092726;28;20193;-78
2022/04/10 06:02:03;;;;;;;9.77;5.75;;;7.50;99.90;;;;;;5093140;28;20645;-78
2022/04/10 06:04:28;;;;;;;9.43;5.70;;;7.80;99.90;;;;;;5092903;28;20268;-77
2022/04/10 06:06:54;;;;;;;6.57;4.95;;;7.80;99.90;;;;;;5092534;28;20172;-77
2022/04/10 06:09:19;;;;;;;7.63;4.55;;;7.80;99.90;;;;;;5092408;28;20190;-77
2022/04/10 06:11:45;;;;;;;10.02;5.47;;;7.60;99.90;;;;;;5091916;28;20162;-77
2022/04/10 06:14:10;;;;;;;11.02;5.32;;;7.60;99.90;;;;;;5092306;28;20203;-76
2022/04/10 06:16:36;;;;;;;7.18;5.00;;;7.70;99.90;;;;;;5092274;28;20161;-78
2022/04/10 06:19:02;;;;;;;13.60;5.75;;;7.70;99.90;;;;;;5092215;28;20615;-77
2022/04/10 06:21:27;;;;;;;7.97;5.68;;;7.60;99.90;;;;;;5091855;28;20174;-77
2022/04/10 06:23:53;;;;;;;19.58;6.05;;;7.50;99.90;;;;;;5091792;28;20169;-77
2022/04/10 06:26:19;;;;;;;16.27;6.20;;;7.70;99.90;;;;;;5092092;28;20172;-80
2022/04/10 06:28:44;;;;;;;12.40;5.15;;;7.50;99.90;;;;;;5092144;28;20224;-80
2022/04/10 06:31:10;;;;;;;14.73;5.97;;;7.40;99.90;;;;;;5092055;28;20177;-78
2022/04/10 06:33:35;;;;;;;12.13;6.07;;;7.80;99.90;;;;;;5091856;28;20280;-79
2022/04/10 06:36:01;;;;;;;9.35;5.32;;;8.00;99.90;;;;;;5092293;28;20170;-80
2022/04/10 06:38:27;;;;;;;10.80;5.63;;;7.90;99.90;;;;;;5091938;28;20182;-80
2022/04/10 06:40:52;;;;;;;9.10;5.78;;;7.90;99.90;;;;;;5095494;28;20201;-79
2022/04/10 06:43:20;;;;;;;13.88;6.22;;;8.00;99.90;;;;;;5095990;28;20676;-81
2022/04/10 06:45:46;;;;;;;14.60;5.25;;;7.90;99.90;;;;;;5095810;28;20166;-81
2022/04/10 06:48:12;;;;;;;10.77;5.40;;;8.30;99.90;;;;;;5095509;28;20602;-78
2022/04/10 06:50:37;;;;;;;17.65;6.45;;;8.30;99.90;;;;;;5095886;28;20169;-81
2022/04/10 06:53:03;;;;;;;18.10;7.25;;;8.50;99.90;;;;;;5096018;28;20166;-80
2022/04/10 06:55:30;;;;;;;9.73;5.07;;;8.70;99.90;;;;;;5095850;28;20165;-80
2022/04/10 06:57:56;;;;;;;18.13;5.57;;;8.90;99.90;;;;;;5095689;28;20191;-80
2022/04/10 07:00:22;;;;;;;19.52;6.50;;;9.00;99.90;;;;;;5095727;28;20623;-80
2022/04/10 07:02:48;;;;;;;22.75;5.75;;;9.10;99.90;;;;;;5096001;28;20196;-81
2022/04/10 07:05:14;;;;;;;13.75;6.38;;;9.00;99.90;;;;;;5095326;28;20166;-79
2022/04/10 07:07:40;;;;;;;12.57;5.60;;;8.80;99.90;;;;;;5095556;28;20161;-78
2022/04/10 07:10:05;;;;;;;7.78;5.38;;;8.60;99.90;;;;;;5095258;28;20235;-79
2022/04/10 07:12:31;;;;;;;14.48;5.20;;;8.60;99.90;;;;;;5095550;28;20221;-77
2022/04/10 07:15:00;;;;;;;7.90;5.57;;;8.40;99.90;;;;;;5095680;28;20174;-78
2022/04/10 07:17:26;;;;;;;13.75;6.20;;;8.20;99.90;;;;;;5095294;28;20154;-80
2022/04/10 07:19:51;;;;;;;19.15;7.10;;;8.10;99.90;;;;;;5095321;28;20213;-80
2022/04/10 07:25:01;;;;;;;15.90;6.57;;;8.10;99.90;;;;;;5095365;28;20208;-78
2022/04/10 07:27:27;;;;;;;13.85;6.30;;;8.30;99.90;;;;;;5095016;28;20162;-78
2022/04/10 07:29:52;;;;;;;11.82;7.10;;;8.10;99.90;;;;;;5094319;28;20181;-79
2022/04/10 07:32:18;;;;;;;9.05;6.25;;;8.00;99.90;;;;;;5094795;28;20238;-78
2022/04/10 07:34:44;;;;;;;14.77;7.43;;;8.10;99.90;;;;;;5094860;28;20190;-79
2022/04/10 07:37:09;;;;;;;10.70;6.38;;;8.40;99.90;;;;;;5094981;28;20207;-78
2022/04/10 07:39:35;;;;;;;22.60;7.28;;;8.40;99.90;;;;;;5094876;28;20206;-79
2022/04/10 07:42:00;;;;;;;15.43;6.45;;;8.60;99.90;;;;;;5094938;28;20535;-79
2022/04/10 07:44:26;;;;;;;21.15;6.70;;;8.70;99.90;;;;;;5094680;28;20162;-80
2022/04/10 07:49:36;;;;;;;18.23;7.50;;;8.70;99.90;;;;;;5091057;28;20231;-78
2022/04/10 07:52:02;;;;;;;10.38;6.57;;;8.80;99.90;;;;;;5091966;28;20178;-80
2022/04/10 07:54:28;;;;;;;11.75;7.35;;;8.70;99.90;;;;;;5094228;28;20169;-80
2022/04/10 07:56:54;;;;;;;22.92;8.15;;;8.80;99.90;;;;;;5093892;28;20194;-80
2022/04/10 07:59:19;;;;;;;21.02;6.40;;;8.90;99.90;;;;;;5091227;28;20738;-79
2022/04/10 08:01:45;;;;;;;9.48;5.90;;;9.00;99.90;;;;;;5094313;28;20209;-79
2022/04/10 08:04:10;;;;;;;16.05;7.32;;;9.10;99.90;;;;;;5092478;28;20685;-79
2022/04/10 08:06:36;;;;;;;12.68;7.20;;;9.50;99.90;;;;;;5093615;28;20211;-79
2022/04/10 08:09:02;;;;;;;14.63;6.80;;;9.60;99.90;;;;;;5093652;28;20189;-79
2022/04/10 08:11:28;;;;;;;11.15;6.28;;;9.80;99.90;;;;;;5093785;28;20614;-79
2022/04/10 08:13:53;;;;;;;19.45;7.00;;;9.60;99.90;;;;;;5092160;28;20165;-79
2022/04/10 08:16:19;;;;;;;8.80;7.03;;;9.40;99.90;;;;;;5092531;28;20174;-79
2022/04/10 08:18:45;;;;;;;19.23;6.15;;;9.50;99.90;;;;;;5093810;28;20235;-80
2022/04/10 08:21:10;;;;;;;11.07;6.25;;;9.30;99.90;;;;;;5093797;28;20205;-80
2022/04/10 08:23:36;;;;;;;9.13;6.63;;;9.10;99.90;;;;;;5092599;28;20169;-80
2022/04/10 08:26:01;;;;;;;12.98;7.15;;;9.20;99.90;;;;;;5093266;28;20172;-80
2022/04/10 08:28:28;;;;;;;9.73;6.15;;;9.30;99.90;;;;;;5092955;28;21135;-79
2022/04/10 08:30:54;;;;;;;12.10;6.05;;;9.40;99.90;;;;;;5092148;28;20174;-79
2022/04/10 08:33:20;;;;;;;9.05;5.85;;;9.30;99.90;;;;;;5093457;28;20181;-79
2022/04/10 08:35:45;;;;;;;10.10;6.68;;;9.50;99.90;;;;;;5076641;28;20660;-79
2022/04/10 08:38:11;;;;;;;17.58;6.15;;;9.70;99.90;;;;;;5073188;28;20190;-79
2022/04/10 08:40:37;;;;;;;8.52;7.63;;;9.90;99.90;;;;;;5072856;28;20292;-79
2022/04/10 08:43:04;;;;;;;7.93;6.00;;;10.20;99.90;;;;;;5071730;28;20243;-80
2022/04/10 08:45:30;;;;;;;15.73;6.18;;;10.30;99.90;;;;;;5071558;28;20647;-80
2022/04/10 08:47:56;;;;;;;15.18;5.97;;;10.70;99.90;;;;;;5073200;28;20182;-80
2022/04/10 08:50:23;;;;;;;8.10;6.07;;;10.80;99.90;;;;;;5092015;28;20180;-80
2022/04/10 08:52:52;;;;;;;10.50;6.03;;;11.10;99.90;;;;;;5092569;28;20189;-80
2022/04/10 08:55:18;;;;;;;10.30;6.00;;;11.00;99.90;;;;;;5088049;28;21001;-79
2022/04/10 08:57:44;;;;;;;10.20;5.95;;;11.00;99.90;;;;;;5092879;28;20162;-79
2022/04/10 09:00:10;;;;;;;8.68;5.60;;;11.10;99.90;;;;;;5092803;28;20224;-78
2022/04/10 09:02:52;;;;;;;6.97;4.18;;;11.10;99.90;;;;;;5091414;28;20181;-78
2022/04/10 09:05:23;;;;;;;11.68;5.20;;;11.40;99.90;;;;;;5093246;28;20512;-78
2022/04/10 09:08:14;;;;;;;10.65;5.50;;;11.40;99.90;;;;;;5092638;28;20214;-79
2022/04/10 09:10:59;;;;;;;6.88;4.28;;;11.60;99.90;;;;;;5093652;28;20162;-81
2022/04/10 09:13:36;;;;;;;7.07;4.28;;;11.60;99.90;;;;;;5093062;28;20210;-79
2022/04/10 09:16:18;;;;;;;6.85;4.22;;;11.80;99.90;;;;;;5093066;28;20268;-77
2022/04/10 09:18:58;;;;;;;6.35;4.57;;;12.00;99.90;;;;;;5097536;28;20189;-80
2022/04/10 09:21:34;;;;;;;5.85;4.65;;;11.80;99.90;;;;;;5091721;28;20268;-78
2022/04/10 09:24:07;;;;;;;15.85;4.95;;;11.80;99.90;;;;;;5093620;28;20165;-84
2022/04/10 09:26:50;;;;;;;11.05;4.03;;;11.40;99.90;;;;;;5093127;28;20173;-83
2022/04/10 09:29:18;;;;;;;6.47;3.83;;;11.50;99.90;;;;;;5092399;28;20189;-79
2022/04/10 09:31:44;;;;;;;7.55;4.60;;;11.60;99.90;;;;;;5092336;28;20172;-80
2022/04/10 09:34:18;;;;;;;5.57;3.78;;;11.90;99.90;;;;;;5092473;28;20169;-78
2022/04/10 09:36:46;;;;;;;10.27;4.60;;;11.90;99.90;;;;;;5090994;28;20170;-79
2022/04/10 09:39:12;;;;;;;4.93;4.03;;;12.20;99.90;;;;;;5092294;28;20677;-79
2022/04/10 09:41:39;;;;;;;10.38;4.28;;;12.40;99.90;;;;;;5091516;28;20223;-78
2022/04/10 09:44:13;;;;;;;17.38;5.05;;;12.30;99.90;;;;;;5092674;28;20224;-78
2022/04/10 09:46:40;;;;;;;7.45;3.97;;;12.50;99.90;;;;;;5092397;28;20164;-78
2022/04/10 09:49:12;;;;;;;9.73;4.78;;;12.60;99.90;;;;;;5092184;28;20181;-79
2022/04/10 09:52:00;;;;;;;12.13;4.05;;;12.50;99.90;;;;;;5092370;28;20169;-79
2022/04/10 09:54:31;;;;;;;12.07;4.18;;;12.40;99.90;;;;;;5091121;28;20169;-79
2022/04/10 09:57:00;;;;;;;8.05;3.92;;;12.40;99.90;;;;;;5092463;28;20169;-79
2022/04/10 09:59:27;;;;;;;10.15;4.28;;;12.50;99.90;;;;;;5090482;28;20201;-78
2022/04/10 10:01:53;;;;;;;6.95;3.85;;;12.70;99.90;;;;;;5091980;28;20311;-78
2022/04/10 10:04:20;;;;;;;8.98;4.28;;;13.00;99.90;;;;;;5091102;28;20619;-79
2022/04/10 10:06:47;;;;;;;8.35;4.65;;;12.80;99.90;;;;;;5092268;28;20166;-77
2022/04/10 10:09:13;;;;;;;7.95;3.42;;;13.10;99.90;;;;;;5092350;28;20188;-77
2022/04/10 10:11:40;;;;;;;4.97;3.28;;;13.20;99.90;;;;;;5091547;28;20169;-77
2022/04/10 10:14:06;;;;;;;15.73;4.47;;;13.40;99.90;;;;;;5092492;28;20158;-76
2022/04/10 10:16:34;;;;;;;5.72;4.13;;;13.50;99.90;;;;;;5096184;28;20170;-79
2022/04/10 10:19:00;;;;;;;4.57;3.20;;;13.70;99.90;;;;;;5096053;28;20182;-79
2022/04/10 10:21:26;;;;;;;6.85;3.72;;;13.00;99.90;;;;;;5096403;28;20180;-78
2022/04/10 10:23:54;;;;;;;9.52;3.33;;;12.90;99.90;;;;;;5096239;28;20168;-82
2022/04/10 10:26:48;;;;;;;5.53;3.17;;;12.80;99.90;;;;;;5095798;28;20170;-79
2022/04/10 10:29:29;;;;;;;4.50;3.40;;;12.90;99.90;;;;;;5095928;28;20344;-78
2022/04/10 10:32:13;;;;;;;5.97;3.28;;;13.10;99.90;;;;;;5093802;28;20208;-79
2022/04/10 10:34:42;;;;;;;9.15;3.22;;;12.70;99.90;;;;;;5095167;28;20561;-82
2022/04/10 10:37:07;;;;;;;3.95;2.80;;;12.90;99.90;;;;;;5096702;28;20269;-78
2022/04/10 10:39:49;;;;;;;5.45;4.03;;;13.00;99.90;;;;;;5096411;28;20323;-80
2022/04/10 10:42:15;;;;;;;4.85;3.38;;;13.10;99.90;;;;;;5098889;28;20158;-76
2022/04/10 10:44:43;;;;;;;10.15;3.72;;;13.20;99.90;;;;;;5102634;28;20595;-80
2022/04/10 10:47:23;;;;;;;5.40;3.55;;;13.40;99.90;;;;;;5101045;28;20218;-79
2022/04/10 10:49:51;;;;;;;5.78;2.88;;;13.30;99.90;;;;;;5099514;28;20258;-80
2022/04/10 10:52:18;;;;;;;8.50;3.63;;;13.50;99.90;;;;;;5100817;28;20166;-78
2022/04/10 10:54:57;;;;;;;8.15;3.67;;;13.50;99.90;;;;;;5099622;28;20248;-79
2022/04/10 10:57:25;;;;;;;4.00;2.65;;;13.60;99.90;;;;;;5101766;28;20158;-79
2022/04/10 11:00:04;;;;;;;5.38;2.70;;;13.60;99.90;;;;;;5099445;28;20219;-78
2022/04/10 11:02:33;;;;;;;8.15;2.80;;;13.60;99.90;;;;;;5100591;28;20589;-77
2022/04/10 11:04:58;;;;;;;3.10;2.60;;;13.40;99.90;;;;;;5099531;28;20177;-78
2022/04/10 11:07:27;;;;;;;8.63;3.03;;;13.50;99.90;;;;;;5095664;28;20162;-77
2022/04/10 11:10:05;;;;;;;2.67;2.28;;;13.90;99.90;;;;;;5095902;28;20181;-81
2022/04/10 11:12:32;;;;;;;5.93;3.10;;;14.20;99.90;;;;;;5094664;28;20173;-79
2022/04/10 11:14:59;;;;;;;2.80;2.50;;;14.40;99.90;;;;;;5094076;28;20165;-80
2022/04/10 11:17:31;;;;;;;3.40;2.10;;;14.10;99.90;;;;;;5093749;28;20211;-79
2022/04/10 11:20:03;;;;;;;6.75;2.58;;;14.10;99.90;;;;;;5095116;28;20286;-80
2022/04/10 11:22:51;;;;;;;4.88;2.58;;;13.70;99.90;;;;;;5095302;28;20219;-79
2022/04/10 11:25:19;;;;;;;9.88;2.30;;;13.80;99.90;;;;;;5095019;28;20158;-80
2022/04/10 11:27:53;;;;;;;9.32;2.20;;;14.10;99.90;;;;;;5095048;28;20549;-81
2022/04/10 11:30:33;;;;;;;3.72;1.98;;;14.10;99.90;;;;;;5095520;28;20174;-78
2022/04/10 11:32:58;;;;;;;2.58;1.92;;;13.90;99.90;;;;;;5094863;28;20255;-77
2022/04/10 11:35:30;;;;;;;4.75;1.95;;;13.50;99.90;;;;;;5094848;28;20215;-78
2022/04/10 11:37:57;;;;;;;3.33;2.38;;;13.20;99.90;;;;;;5093792;28;20207;-79
2022/04/10 11:40:24;;;;;;;2.65;1.70;;;13.30;99.90;;;;;;5094465;28;20323;-80
2022/04/10 11:42:51;;;;;;;4.72;2.05;;;13.40;99.90;;;;;;5094528;28;20174;-79
2022/04/10 11:45:18;;;;;;;4.20;2.35;;;13.20;99.90;;;;;;5094551;28;20169;-78
2022/04/10 11:47:43;;;;;;;7.60;2.47;;;13.20;99.90;;;;;;5092857;28;20997;-79
2022/04/10 11:50:12;;;;;;;7.22;2.30;;;13.50;99.90;;;;;;5094368;28;20308;-79
2022/04/10 11:52:38;;;;;;;3.22;2.05;;;13.50;99.90;;;;;;5094959;28;20158;-78
2022/04/10 11:55:08;;;;;;;7.07;2.67;;;13.50;99.90;;;;;;5093379;28;20229;-78
2022/04/10 11:57:38;;;;;;;4.57;2.30;;;13.40;99.90;;;;;;5094524;28;20166;-79
2022/04/10 12:00:09;;;;;;;2.88;2.53;;;13.60;99.90;;;;;;5094551;28;20221;-79
2022/04/10 12:02:36;;;;;;;6.35;2.28;;;13.40;99.90;;;;;;5093287;28;20161;-82
2022/04/10 12:05:03;;;;;;;3.30;1.98;;;13.40;99.90;;;;;;5094431;28;20634;-83
2022/04/10 12:07:29;;;;;;;4.80;2.63;;;13.30;99.90;;;;;;5094616;28;20170;-84
2022/04/10 12:09:54;;;;;;;3.00;2.70;;;13.80;99.90;;;;;;5094001;28;20186;-85
2022/04/10 12:12:30;;;;;;;10.13;2.80;;;14.00;99.90;;;;;;5094911;28;20238;-80
2022/04/10 12:14:56;;;;;;;8.32;2.83;;;14.10;99.90;;;;;;5094308;28;20170;-79
2022/04/10 12:17:21;;;;;;;9.80;2.60;;;14.20;99.90;;;;;;5093952;28;20219;-79
2022/04/10 12:19:53;;;;;;;6.22;3.10;;;14.60;99.90;;;;;;5093977;28;20213;-79
2022/04/10 12:22:21;;;;;;;3.40;2.50;;;14.80;99.90;;;;;;5094058;28;21114;-86
2022/04/10 12:24:47;;;;;;;6.38;2.55;;;14.60;99.50;;;;;;5094425;28;20162;-81
2022/04/10 12:27:14;;;;;;;3.03;1.83;;;14.40;99.90;;;;;;5093024;28;20168;-83
2022/04/10 12:29:40;;;;;;;6.63;2.15;;;14.60;99.90;;;;;;5093488;28;20311;-83
2022/04/10 12:32:09;;;;;;;5.80;2.05;;;14.80;99.60;;;;;;5095033;28;20709;-83
2022/04/10 12:34:38;;;;;;;3.55;1.95;;;14.50;99.90;;;;;;5095069;28;20181;-84
2022/04/10 12:37:12;;;;;;;4.07;2.35;;;14.60;99.90;;;;;;5092175;28;20174;-79
2022/04/10 12:39:38;;;;;;;17.33;3.20;;;14.90;99.90;;;;;;5092629;28;20264;-81
2022/04/10 12:42:09;;;;;;;5.13;2.08;;;15.10;99.90;;;;;;5092697;28;20189;-80
2022/04/10 12:44:37;;;;;;;4.07;1.83;;;14.30;99.90;;;;;;5092933;28;20198;-81
2022/04/10 12:47:04;;;;;;;7.47;2.30;;;14.30;99.90;;;;;;5092538;28;20626;-84
2022/04/10 12:49:30;;;;;;;25.05;2.58;;;14.30;99.90;;;;;;5092584;28;20194;-83
2022/04/10 12:52:00;;;;;;;3.58;2.53;;;14.10;99.90;;;;;;5092609;28;20164;-80
2022/04/10 12:54:43;;;;;;;6.18;2.88;;;14.20;99.90;;;;;;5094268;28;20612;-81
2022/04/10 12:57:26;;;;;;;3.85;2.42;;;14.40;99.90;;;;;;5092561;28;20531;-81